createdAt,value
2022-10-24T00:00:27.426Z,82.91
2022-10-24T00:02:54.318Z,83.05
2022-10-24T00:05:21.302Z,82.99
2022-10-24T00:07:50.201Z,82.93
2022-10-24T00:10:17.743Z,83.02
2022-10-24T00:12:45.053Z,82.56
2022-10-24T00:15:11.995Z,82.12
2022-10-24T00:17:38.588Z,82.52
2022-10-24T00:20:06.896Z,82.50
2022-10-24T00:22:33.377Z,82.48
2022-10-24T00:25:00.045Z,82.15
2022-10-24T00:27:26.664Z,82.07
2022-10-24T00:29:53.159Z,81.81
2022-10-24T00:32:20.037Z,81.82
2022-10-24T00:34:46.545Z,82.00
2022-10-24T00:37:13.201Z,81.41
2022-10-24T00:39:40.156Z,81.79
2022-10-24T00:42:06.741Z,81.61
2022-10-24T00:44:39.040Z,81.39
2022-10-24T00:47:19.427Z,81.77
2022-10-24T00:50:02.619Z,81.83
2022-10-24T00:52:36.594Z,81.99
2022-10-24T00:55:05.686Z,81.42
2022-10-24T00:57:44.610Z,81.41
2022-10-24T01:00:19.669Z,81.44
2022-10-24T01:02:46.576Z,81.69
2022-10-24T01:05:14.131Z,81.54
2022-10-24T01:07:52.145Z,80.81
2022-10-24T01:11:03.104Z,80.23
2022-10-24T01:13:41.716Z,80.07
2022-10-24T01:16:19.703Z,79.42
2022-10-24T01:19:12.305Z,79.49
2022-10-24T01:21:49.141Z,79.41
2022-10-24T01:24:40.777Z,79.65
2022-10-24T01:27:37.614Z,79.23
2022-10-24T01:30:12.579Z,79.41
2022-10-24T01:32:54.745Z,79.21
2022-10-24T01:35:40.490Z,79.01
2022-10-24T01:38:10.085Z,79.20
2022-10-24T01:40:50.875Z,79.04
2022-10-24T01:43:23.501Z,79.58
2022-10-24T01:45:55.160Z,79.20
2022-10-24T01:48:24.942Z,79.29
2022-10-24T01:50:53.913Z,79.50
2022-10-24T01:53:24.958Z,79.83
2022-10-24T01:55:52.294Z,79.69
2022-10-24T01:58:18.968Z,79.34
2022-10-24T02:00:48.762Z,79.59
2022-10-24T02:03:29.905Z,79.46
2022-10-24T02:06:04.209Z,79.36
2022-10-24T02:08:36.544Z,79.23
2022-10-24T02:11:06.207Z,79.15
2022-10-24T02:13:42.317Z,79.08
2022-10-24T02:16:09.663Z,79.27
2022-10-24T02:18:36.340Z,79.44
2022-10-24T02:21:24.164Z,79.43
2022-10-24T02:24:02.851Z,79.53
2022-10-24T02:26:34.813Z,79.21
2022-10-24T02:29:07.169Z,78.68
2022-10-24T02:31:39.409Z,79.13
2022-10-24T02:34:09.023Z,78.96
2022-10-24T02:36:37.463Z,78.61
2022-10-24T02:39:07.540Z,78.45
2022-10-24T02:41:36.677Z,78.55
2022-10-24T02:44:05.952Z,78.30
2022-10-24T02:46:34.838Z,78.04
2022-10-24T02:49:02.937Z,77.69
2022-10-24T02:51:33.423Z,77.54
2022-10-24T02:54:01.160Z,77.54
2022-10-24T02:56:28.405Z,76.92
2022-10-24T02:58:55.825Z,77.28
2022-10-24T03:01:22.495Z,77.21
2022-10-24T03:03:49.104Z,77.73
2022-10-24T03:06:15.902Z,77.11
2022-10-24T03:08:42.406Z,77.27
2022-10-24T03:11:08.942Z,77.18
2022-10-24T03:13:35.517Z,77.47
2022-10-24T03:16:02.161Z,77.52
2022-10-24T03:18:28.595Z,77.63
2022-10-24T03:20:55.099Z,77.64
2022-10-24T03:23:22.163Z,77.84
2022-10-24T03:25:49.079Z,77.93
2022-10-24T03:28:15.762Z,77.96
2022-10-24T03:30:42.294Z,77.99
2022-10-24T03:33:08.791Z,78.25
2022-10-24T03:35:37.169Z,78.41
2022-10-24T03:38:03.857Z,78.84
2022-10-24T03:40:30.403Z,78.19
2022-10-24T03:42:56.850Z,78.41
2022-10-24T03:45:23.873Z,78.52
2022-10-24T03:47:50.389Z,78.76
2022-10-24T03:50:19.362Z,78.67
2022-10-24T03:52:46.365Z,78.69
2022-10-24T03:55:13.616Z,78.73
2022-10-24T03:57:40.176Z,78.67
2022-10-24T04:00:07.550Z,78.83
2022-10-24T04:02:34.171Z,78.35
2022-10-24T04:05:00.673Z,78.17
2022-10-24T04:07:27.145Z,77.98
2022-10-24T04:09:53.687Z,78.78
2022-10-24T04:12:20.132Z,78.74
2022-10-24T04:14:46.692Z,78.68
2022-10-24T04:17:13.607Z,78.73
2022-10-24T04:19:40.104Z,78.69
2022-10-24T04:22:06.671Z,78.75
2022-10-24T04:24:33.752Z,78.90
2022-10-24T04:27:00.286Z,78.65
2022-10-24T04:29:26.747Z,78.77
2022-10-24T04:31:53.231Z,78.64
2022-10-24T04:34:19.748Z,78.73
2022-10-24T04:36:46.242Z,78.59
2022-10-24T04:39:15.869Z,78.64
2022-10-24T04:41:42.435Z,78.76
2022-10-24T04:44:08.923Z,78.49
2022-10-24T04:46:35.393Z,78.25
2022-10-24T04:49:01.909Z,78.44
2022-10-24T04:51:28.414Z,78.35
2022-10-24T04:53:54.923Z,78.59
2022-10-24T04:56:21.760Z,78.12
2022-10-24T04:58:48.409Z,78.33
2022-10-24T05:01:15.040Z,78.27
2022-10-24T05:03:41.949Z,78.21
2022-10-24T05:06:08.528Z,78.31
2022-10-24T05:08:36.234Z,77.79
2022-10-24T05:11:03.553Z,77.59
2022-10-24T05:13:32.984Z,76.76
2022-10-24T05:16:02.400Z,76.38
2022-10-24T05:18:29.046Z,75.64
2022-10-24T05:20:59.756Z,75.24
2022-10-24T05:23:26.601Z,75.25
2022-10-24T05:25:53.504Z,75.01
2022-10-24T05:28:20.015Z,74.83
2022-10-24T05:30:46.587Z,74.31
2022-10-24T05:33:13.358Z,74.00
2022-10-24T05:35:41.689Z,74.35
2022-10-24T05:38:08.385Z,74.33
2022-10-24T05:40:34.967Z,74.36
2022-10-24T05:43:01.482Z,75.01
2022-10-24T05:45:27.984Z,74.83
2022-10-24T05:47:54.542Z,75.17
2022-10-24T05:50:21.064Z,74.82
2022-10-24T05:52:48.028Z,74.93
2022-10-24T05:55:17.874Z,75.48
2022-10-24T05:57:45.822Z,75.59
2022-10-24T06:00:14.771Z,75.44
2022-10-24T06:02:42.000Z,75.45
2022-10-24T06:05:10.075Z,75.41
2022-10-24T06:07:37.529Z,75.74
2022-10-24T06:10:06.511Z,75.43
2022-10-24T06:12:33.430Z,75.39
2022-10-24T06:15:00.594Z,75.50
2022-10-24T06:17:27.502Z,75.37
2022-10-24T06:19:54.338Z,75.25
2022-10-24T06:22:24.133Z,75.52
2022-10-24T06:24:51.125Z,76.80
2022-10-24T06:27:17.664Z,76.64
2022-10-24T06:29:44.203Z,75.80
2022-10-24T06:32:10.721Z,74.93
2022-10-24T06:34:37.722Z,73.25
2022-10-24T06:37:04.530Z,73.17
2022-10-24T06:39:31.250Z,72.91
2022-10-24T06:41:57.837Z,72.67
2022-10-24T06:44:24.372Z,72.50
2022-10-24T06:46:50.898Z,72.39
2022-10-24T06:49:17.477Z,72.67
2022-10-24T06:51:44.556Z,72.54
2022-10-24T06:54:11.289Z,72.32
2022-10-24T06:56:37.833Z,71.91
2022-10-24T06:59:09.480Z,72.16
2022-10-24T07:01:36.125Z,71.95
2022-10-24T07:04:02.786Z,70.97
2022-10-24T07:06:30.357Z,71.03
2022-10-24T07:08:59.040Z,71.36
2022-10-24T07:11:27.197Z,71.24
2022-10-24T07:13:56.723Z,70.68
2022-10-24T07:16:26.954Z,70.39
2022-10-24T07:18:53.850Z,69.79
2022-10-24T07:21:23.713Z,69.61
2022-10-24T07:23:51.975Z,69.49
2022-10-24T07:26:19.360Z,69.03
2022-10-24T07:28:47.891Z,68.84
2022-10-24T07:31:17.515Z,68.68
2022-10-24T07:33:44.204Z,68.60
2022-10-24T07:36:11.129Z,68.91
2022-10-24T07:38:37.686Z,68.53
2022-10-24T07:41:05.728Z,68.95
2022-10-24T07:43:32.401Z,68.72
2022-10-24T07:45:59.043Z,68.91
2022-10-24T07:48:25.530Z,68.34
2022-10-24T07:50:52.022Z,68.42
2022-10-24T07:53:18.607Z,68.33
2022-10-24T07:55:45.151Z,68.25
2022-10-24T07:58:12.236Z,67.60
2022-10-24T08:00:44.833Z,67.91
2022-10-24T08:03:11.845Z,67.96
2022-10-24T08:05:41.858Z,67.86
2022-10-24T08:08:27.571Z,68.33
2022-10-24T08:10:55.576Z,67.67
2022-10-24T08:13:22.129Z,67.54
2022-10-24T08:15:48.608Z,67.74
2022-10-24T08:18:15.163Z,67.73
2022-10-24T08:20:41.765Z,67.98
2022-10-24T08:23:08.442Z,67.87
2022-10-24T08:25:35.031Z,67.35
2022-10-24T08:28:04.046Z,67.64
2022-10-24T08:30:33.204Z,67.73
2022-10-24T08:32:59.711Z,67.78
2022-10-24T08:35:26.453Z,67.08
2022-10-24T08:37:53.055Z,66.64
2022-10-24T08:40:20.823Z,66.59
2022-10-24T08:42:48.704Z,66.70
2022-10-24T08:46:11.787Z,65.82
2022-10-24T08:48:48.229Z,66.04
2022-10-24T08:51:35.492Z,66.09
2022-10-24T08:54:04.030Z,66.37
2022-10-24T08:56:33.462Z,68.21
2022-10-24T08:59:02.207Z,66.18
2022-10-24T09:01:39.565Z,66.41
2022-10-24T09:04:10.868Z,66.83
2022-10-24T09:06:37.701Z,66.50
2022-10-24T09:09:23.044Z,66.72
2022-10-24T09:11:53.812Z,66.12
2022-10-24T09:14:26.300Z,66.26
2022-10-24T09:16:58.764Z,66.46
2022-10-24T09:19:29.222Z,66.19
2022-10-24T09:21:57.782Z,66.13
2022-10-24T09:24:29.253Z,65.77
2022-10-24T09:26:56.416Z,66.01
2022-10-24T09:29:24.090Z,65.64
2022-10-24T09:31:50.731Z,66.29
2022-10-24T09:34:17.348Z,65.86
2022-10-24T09:36:44.749Z,65.29
2022-10-24T09:39:27.792Z,65.20
2022-10-24T09:41:55.402Z,65.75
2022-10-24T09:44:35.672Z,64.49
2022-10-24T09:47:04.259Z,64.17
2022-10-24T09:49:35.858Z,64.64
2022-10-24T09:52:07.222Z,64.69
2022-10-24T09:54:35.376Z,64.08
2022-10-24T09:57:01.887Z,63.06
2022-10-24T09:59:44.442Z,63.72
2022-10-24T10:02:11.182Z,63.35
2022-10-24T10:04:38.544Z,63.77
2022-10-24T10:07:18.965Z,64.58
2022-10-24T10:09:56.709Z,64.08
2022-10-24T10:12:32.843Z,64.09
2022-10-24T10:15:02.306Z,63.79
2022-10-24T10:17:31.372Z,63.26
2022-10-24T10:19:58.579Z,62.93
2022-10-24T10:22:32.993Z,63.16
2022-10-24T10:25:00.438Z,62.72
2022-10-24T10:27:26.992Z,63.13
2022-10-24T10:30:12.059Z,63.11
2022-10-24T10:33:01.865Z,62.91
2022-10-24T10:35:53.377Z,62.40
2022-10-24T10:39:02.090Z,62.51
2022-10-24T10:45:03.416Z,62.32
2022-10-24T10:47:51.885Z,62.28
2022-10-24T10:50:55.506Z,61.77
2022-10-24T10:53:49.793Z,61.73
2022-10-24T10:56:25.838Z,61.49
2022-10-24T10:58:55.451Z,60.99
2022-10-24T11:01:49.650Z,61.97
2022-10-24T11:04:26.433Z,62.00
2022-10-24T11:07:21.272Z,62.78
2022-10-24T11:09:59.276Z,62.50
2022-10-24T11:12:38.229Z,62.79
2022-10-24T11:15:29.361Z,62.44
2022-10-24T11:18:12.807Z,62.70
2022-10-24T11:21:10.113Z,63.36
2022-10-24T11:24:04.379Z,63.24
2022-10-24T11:26:40.487Z,63.39
2022-10-24T11:29:25.823Z,62.33
2022-10-24T11:32:48.443Z,62.85
2022-10-24T11:35:19.697Z,63.21
2022-10-24T11:37:51.035Z,63.68
2022-10-24T11:40:23.020Z,63.38
2022-10-24T11:43:11.423Z,63.21
2022-10-24T11:45:47.809Z,62.99
2022-10-24T11:48:28.262Z,63.79
2022-10-24T11:51:13.723Z,65.89
2022-10-24T11:53:49.445Z,67.32
2022-10-24T11:56:33.321Z,67.53
2022-10-24T11:59:02.815Z,67.48
2022-10-24T12:02:00.430Z,67.72
2022-10-24T12:04:44.642Z,68.76
2022-10-24T12:07:11.476Z,68.47
2022-10-24T12:09:59.001Z,66.83
2022-10-24T12:12:57.153Z,66.82
2022-10-24T12:15:39.047Z,67.04
2022-10-24T12:18:26.640Z,67.59
2022-10-24T12:20:55.561Z,67.77
2022-10-24T12:23:27.549Z,67.62
2022-10-24T12:26:13.101Z,67.74
2022-10-24T12:28:41.840Z,67.19
2022-10-24T12:31:33.056Z,66.86
2022-10-24T12:34:23.433Z,66.30
2022-10-24T12:37:12.321Z,66.21
2022-10-24T12:39:45.747Z,66.41
2022-10-24T12:42:19.849Z,66.72
2022-10-24T12:44:50.608Z,66.63
2022-10-24T12:47:38.634Z,66.77
2022-10-24T12:50:20.999Z,66.23
2022-10-24T12:52:47.859Z,66.67
2022-10-24T12:55:39.487Z,65.99
2022-10-24T12:58:29.052Z,66.37
2022-10-24T13:00:58.104Z,65.70
2022-10-24T13:03:42.647Z,66.15
2022-10-24T13:06:24.471Z,65.67
2022-10-24T13:09:12.561Z,65.86
2022-10-24T13:12:00.499Z,66.20
2022-10-24T13:14:58.439Z,66.60
2022-10-24T13:18:00.264Z,66.22
2022-10-24T13:20:38.182Z,66.37
2022-10-24T13:23:23.097Z,66.64
2022-10-24T13:25:56.555Z,65.79
2022-10-24T13:28:27.506Z,65.45
2022-10-24T13:30:59.857Z,64.94
2022-10-24T13:33:40.369Z,64.35
2022-10-24T13:36:09.769Z,64.50
2022-10-24T13:38:47.640Z,64.31
2022-10-24T13:41:25.523Z,64.71
2022-10-24T13:43:56.475Z,64.57
2022-10-24T13:46:30.209Z,63.66
2022-10-24T13:48:58.147Z,62.84
2022-10-24T13:51:35.771Z,62.67
2022-10-24T13:54:11.522Z,62.29
2022-10-24T13:56:41.455Z,61.45
2022-10-24T13:59:30.067Z,62.26
2022-10-24T14:01:58.804Z,61.96
2022-10-24T14:04:27.373Z,62.16
2022-10-24T14:07:01.492Z,62.92
2022-10-24T14:09:28.147Z,63.78
2022-10-24T14:11:56.565Z,63.69
2022-10-24T14:14:30.436Z,64.13
2022-10-24T14:17:22.936Z,64.33
2022-10-24T14:20:21.204Z,64.33
2022-10-24T14:22:48.559Z,63.74
2022-10-24T14:25:27.699Z,63.60
2022-10-24T14:27:57.620Z,63.95
2022-10-24T14:30:30.526Z,63.79
2022-10-24T14:33:15.564Z,65.58
2022-10-24T14:35:42.533Z,68.34
2022-10-24T14:38:14.797Z,69.22
2022-10-24T14:40:43.561Z,70.22
2022-10-24T14:46:24.931Z,71.66
2022-10-24T14:48:52.556Z,73.47
2022-10-24T14:51:27.049Z,74.02
2022-10-24T14:53:58.016Z,76.08
2022-10-24T14:56:32.855Z,76.06
2022-10-24T14:59:02.989Z,77.18
2022-10-24T15:01:29.880Z,77.61
2022-10-24T15:04:02.295Z,77.88
2022-10-24T15:06:42.852Z,78.24
2022-10-24T15:09:12.238Z,78.60
2022-10-24T15:11:42.392Z,79.69
2022-10-24T15:14:49.212Z,80.05
2022-10-24T15:17:21.515Z,79.31
2022-10-24T15:19:50.012Z,79.17
2022-10-24T15:22:29.640Z,79.19
2022-10-24T15:24:59.104Z,79.12
2022-10-24T15:27:40.568Z,79.02
2022-10-24T15:30:28.765Z,78.63
2022-10-24T15:32:57.791Z,78.66
2022-10-24T15:35:24.760Z,78.48
2022-10-24T15:37:58.648Z,78.25
2022-10-24T15:40:29.992Z,78.56
2022-10-24T15:42:57.224Z,78.69
2022-10-24T15:45:24.386Z,78.92
2022-10-24T15:47:52.146Z,78.61
2022-10-24T15:53:16.657Z,78.92
2022-10-24T15:55:43.185Z,79.35
2022-10-24T15:58:14.682Z,79.69
2022-10-24T16:00:41.701Z,79.18
2022-10-24T16:03:15.454Z,79.34
2022-10-24T16:05:46.689Z,79.62
2022-10-24T16:08:15.958Z,79.45
2022-10-24T16:10:43.689Z,79.29
2022-10-24T16:13:13.378Z,79.76
2022-10-24T16:15:39.948Z,79.56
2022-10-24T16:18:06.705Z,79.43
2022-10-24T16:20:33.335Z,79.77
2022-10-24T16:22:59.982Z,80.03
2022-10-24T16:25:33.086Z,79.77
2022-10-24T16:28:00.189Z,80.13
2022-10-24T16:30:29.533Z,79.82
2022-10-24T16:32:56.693Z,80.01
2022-10-24T16:35:28.603Z,80.40
2022-10-24T16:37:57.116Z,80.53
2022-10-24T16:40:25.048Z,80.54
2022-10-24T16:42:52.911Z,81.04
2022-10-24T16:45:20.039Z,80.66
2022-10-24T16:47:48.039Z,80.78
2022-10-24T16:50:24.564Z,80.57
2022-10-24T16:52:56.340Z,80.48
2022-10-24T16:55:23.673Z,80.40
2022-10-24T16:57:50.265Z,80.70
2022-10-24T17:00:19.267Z,80.32
2022-10-24T17:02:48.518Z,80.68
2022-10-24T17:05:15.766Z,80.72
2022-10-24T17:07:42.376Z,81.32
2022-10-24T17:10:11.722Z,81.56
2022-10-24T17:12:39.667Z,81.74
2022-10-24T17:15:07.308Z,81.18
2022-10-24T17:17:33.962Z,81.48
2022-10-24T17:20:02.093Z,81.48
2022-10-24T17:22:29.472Z,81.47
2022-10-24T17:24:56.955Z,81.66
2022-10-24T17:27:26.450Z,81.65
2022-10-24T17:29:53.114Z,81.84
2022-10-24T17:32:19.794Z,82.01
2022-10-24T17:34:50.166Z,82.00
2022-10-24T17:37:24.977Z,82.24
2022-10-24T17:40:18.943Z,82.66
2022-10-24T17:42:49.077Z,82.38
2022-10-24T17:45:18.078Z,82.50
2022-10-24T17:47:47.618Z,82.26
2022-10-24T17:50:14.334Z,82.45
2022-10-24T17:52:42.332Z,82.56
2022-10-24T17:55:45.047Z,81.80
2022-10-24T17:58:11.695Z,81.59
2022-10-24T18:00:38.959Z,81.01
2022-10-24T18:03:05.942Z,81.12
2022-10-24T18:05:37.500Z,81.07
2022-10-24T18:08:05.794Z,81.17
2022-10-24T18:10:32.772Z,81.13
2022-10-24T18:15:46.077Z,81.33
2022-10-24T18:18:14.792Z,81.58
2022-10-24T18:20:41.278Z,81.92
2022-10-24T18:23:08.124Z,81.76
2022-10-24T18:25:34.614Z,81.59
2022-10-24T18:28:01.094Z,81.54
2022-10-24T18:30:27.739Z,81.86
2022-10-24T18:32:54.248Z,81.63
2022-10-24T18:35:22.482Z,81.30
2022-10-24T18:40:38.776Z,81.54
2022-10-24T18:43:05.574Z,81.07
2022-10-24T18:45:32.732Z,81.84
2022-10-24T18:47:59.513Z,82.01
2022-10-24T18:50:26.337Z,81.43
2022-10-24T18:53:03.594Z,81.61
2022-10-24T18:55:31.498Z,81.31
2022-10-24T18:57:58.607Z,81.01
2022-10-24T19:00:27.387Z,81.39
2022-10-24T19:03:13.611Z,81.44
2022-10-24T19:06:21.761Z,81.01
2022-10-24T19:08:48.393Z,81.23
2022-10-24T19:11:15.499Z,80.96
2022-10-24T19:13:44.808Z,81.00
2022-10-24T19:16:19.354Z,81.01
2022-10-24T19:18:54.748Z,80.54
2022-10-24T19:21:21.696Z,80.95
2022-10-24T19:23:48.335Z,80.99
2022-10-24T19:26:15.006Z,81.08
2022-10-24T19:28:41.686Z,81.00
2022-10-24T19:31:08.270Z,81.01
2022-10-24T19:33:34.791Z,81.37
2022-10-24T19:36:05.708Z,81.81
2022-10-24T19:38:32.614Z,81.59
2022-10-24T19:40:59.594Z,81.14
2022-10-24T19:43:30.759Z,81.61
2022-10-24T19:48:49.157Z,81.74
2022-10-24T19:51:17.067Z,82.30
2022-10-24T19:53:45.880Z,82.07
2022-10-24T19:56:22.604Z,83.15
2022-10-24T19:58:51.537Z,83.17
2022-10-24T20:01:21.450Z,83.99
2022-10-24T20:03:49.796Z,84.02
2022-10-24T20:06:17.332Z,84.44
2022-10-24T20:08:46.396Z,84.52
2022-10-24T20:11:15.417Z,83.49
2022-10-24T20:13:42.807Z,84.00
2022-10-24T20:16:10.648Z,84.08
2022-10-24T20:18:38.988Z,84.02
2022-10-24T20:21:08.570Z,83.40
2022-10-24T20:23:36.014Z,82.76
2022-10-24T20:26:12.602Z,82.71
2022-10-24T20:28:43.368Z,82.89
2022-10-24T20:31:34.706Z,83.16
2022-10-24T20:34:07.899Z,83.24
2022-10-24T20:36:35.103Z,83.01
2022-10-24T20:39:01.631Z,83.82
2022-10-24T20:41:28.936Z,83.45
2022-10-24T20:43:55.693Z,84.34
2022-10-24T20:46:22.537Z,84.49
2022-10-24T20:48:49.136Z,84.56
2022-10-24T20:51:18.076Z,84.49
2022-10-24T20:53:45.592Z,84.80
2022-10-24T20:56:14.464Z,85.01
2022-10-24T20:58:42.909Z,85.14
2022-10-24T21:01:18.245Z,84.76
2022-10-24T21:03:44.963Z,84.88
2022-10-24T21:06:20.728Z,85.06
2022-10-24T21:08:49.386Z,84.43
2022-10-24T21:11:17.880Z,84.18
2022-10-24T21:13:45.592Z,84.06
2022-10-24T21:16:12.748Z,83.78
2022-10-24T21:18:39.295Z,83.88
2022-10-24T21:21:10.731Z,84.07
2022-10-24T21:23:37.399Z,83.91
2022-10-24T21:26:09.836Z,83.74
2022-10-24T21:28:37.145Z,83.75
2022-10-24T21:31:12.292Z,83.67
2022-10-24T21:33:39.597Z,83.67
2022-10-24T21:36:08.101Z,83.73
2022-10-24T21:38:34.636Z,84.05
2022-10-24T21:41:03.186Z,83.81
2022-10-24T21:43:32.241Z,84.38
2022-10-24T21:46:03.198Z,83.73
2022-10-24T21:48:30.909Z,83.90
2022-10-24T21:51:11.524Z,84.20
2022-10-24T21:53:43.535Z,83.68
2022-10-24T21:56:13.138Z,84.41
2022-10-24T21:58:39.838Z,83.91
2022-10-24T22:01:15.645Z,83.75
2022-10-24T22:03:42.651Z,83.63
2022-10-24T22:06:11.830Z,83.62
2022-10-24T22:08:38.433Z,83.76
2022-10-24T22:11:08.235Z,83.67
2022-10-24T22:13:35.493Z,83.70
2022-10-24T22:16:03.095Z,84.29
2022-10-24T22:18:31.679Z,83.88
2022-10-24T22:20:59.043Z,83.83
2022-10-24T22:23:26.061Z,83.84
2022-10-24T22:25:52.857Z,83.99
2022-10-24T22:28:20.072Z,84.21
2022-10-24T22:30:47.326Z,84.37
2022-10-24T22:33:19.563Z,84.90
2022-10-24T22:35:54.858Z,84.48
2022-10-24T22:38:21.830Z,84.76
2022-10-24T22:40:48.612Z,85.25
2022-10-24T22:43:15.441Z,85.53
2022-10-24T22:45:50.975Z,85.00
2022-10-24T22:48:25.972Z,85.65
2022-10-24T22:50:54.569Z,85.52
2022-10-24T22:53:27.803Z,86.06
2022-10-24T22:55:54.369Z,85.96
2022-10-24T22:58:21.575Z,85.72
2022-10-24T23:00:54.423Z,86.19
2022-10-24T23:03:37.511Z,85.99
2022-10-24T23:06:22.655Z,85.98
2022-10-24T23:08:51.895Z,85.93
2022-10-24T23:11:18.583Z,85.44
2022-10-24T23:13:45.289Z,85.63
2022-10-24T23:16:38.945Z,85.49
2022-10-24T23:19:18.870Z,85.65
2022-10-24T23:22:03.410Z,85.62
2022-10-24T23:24:30.135Z,85.56
2022-10-24T23:27:12.048Z,85.40
2022-10-24T23:29:42.141Z,85.30
2022-10-24T23:32:18.991Z,85.29
2022-10-24T23:34:46.304Z,85.62
2022-10-24T23:37:24.050Z,85.68
2022-10-24T23:39:51.002Z,85.71
2022-10-24T23:42:17.823Z,85.76
2022-10-24T23:44:44.793Z,85.63
2022-10-24T23:47:28.288Z,85.83
2022-10-24T23:50:01.640Z,85.95
2022-10-24T23:52:40.884Z,85.92
2022-10-24T23:55:11.936Z,85.91
2022-10-24T23:57:38.655Z,85.64
